• Join FlightAware (Why Join?)
  • Login
  • US Flag 
03:42PM EST


 

Airport Tracker/Info


-or-


 

Live Flight TrackerFlight Track Log ✈ SWA4296 ✈ 28-Dec-2013 ✈ KSNA - KPHX

Flight Track Log - Related Links

Times and Time Zones

All times are in EST time to prevent confusion due to time zone crossing. See the SWA4296 flight status page for this flight to view local times or setup timezone preferences in your user account.

Time Position Orientation Groundspeed Altitude Reporting Facility
EST Latitude Longitude Course Direction KTS MPH feet Rate Location/Type
09:25PM 33.5558 -117.8864 175° South 211 243 5,200  Level Los Angeles Center
09:26PM 33.5558 -117.7861 90° East 255 293 9,300 3,420 Climbing Los Angeles Center
09:27PM 33.5656 -117.6825 84° East 301 346 12,300 3,240 Climbing Los Angeles Center
09:28PM 33.5761 -117.5653 84° East 348 400 16,000 3,480 Climbing Los Angeles Center
09:29PM 33.6606 -117.1327 68° East  Level Estimated
09:29PM 33.5844 -117.4461 85° East 359 413 19,500  Level Los Angeles Center
09:30PM 33.6576 -117.0101 90° East  Level Estimated
09:30PM 33.5900 -117.3186 87° East 380 437 22,300  Level Los Angeles Center
09:32PM 33.5944 -117.1853 88° East 399 459 23,600 1,260 Climbing Los Angeles Center
09:33PM 33.5986 -117.0517 88° East 402 463 25,000 1,140 Climbing Los Angeles Center
09:34PM 33.6044 -116.8906 87° East 405 466 26,000 1,620 Climbing Los Angeles Center
09:35PM 33.6092 -116.7567 88° East 410 472 28,400 2,100 Climbing Los Angeles Center
09:36PM 33.6136 -116.6164 88° East 417 480 30,400 1,260 Climbing Los Angeles Center
09:37PM 33.6183 -116.4697 88° East 433 498 31,000 240 Climbing Los Angeles Center
09:38PM 33.6228 -116.3142 88° East 455 524 31,000  Level Los Angeles Center
09:39PM 33.6269 -116.1508 88° East 476 548 31,000  Level Los Angeles Center
09:40PM 33.6250 -115.9903 91° East 480 552 31,000  Level Los Angeles Center
09:41PM 33.6208 -115.8303 92° East 478 550 31,000  Level Los Angeles Center
09:42PM 33.6175 -115.6375 91° East 480 552 31,000  Level Los Angeles Center
09:43PM 33.6119 -115.4775 92° East 479 551 31,000  Level Los Angeles Center
09:44PM 33.6081 -115.3158 92° East 483 556 31,000 -60 Level Los Angeles Center
09:45PM 33.6047 -115.1517 91° East 491 565 30,900 -600 Descending Los Angeles Center
09:46PM 33.6003 -114.9961 92° East 470 541 29,800 -1,080 Descending Los Angeles Center
09:47PM 33.5964 -114.8500 92° East 443 510 28,700 -1,080 Descending Los Angeles Center
09:48PM 33.5786 -114.6803 97° East 432 497 27,500 -1,020 Descending Los Angeles Center
09:49PM 33.5525 -114.5458 103° East 417 480 26,500 -1,080 Descending Los Angeles Center
09:50PM 33.5261 -114.4172 104° East 401 461 25,400 -780 Descending Los Angeles Center
09:51PM 33.4972 -114.2650 103° East 395 455 25,000 -240 Descending Los Angeles Center
09:52PM 33.4722 -114.1386 103° East 391 450 25,000  Level Los Angeles Center
09:53PM 33.4469 -114.0103 103° East 396 456 25,000  Level Los Angeles Center
09:54PM 33.4214 -113.8733 103° East 394 453 25,000 -120 Level Albuquerque Center
09:55PM 33.3969 -113.7467 103° East 391 450 24,800 -960 Descending Albuquerque Center
09:56PM 33.3706 -113.6222 104° East 388 447 23,100 -1,920 Descending Albuquerque Center
09:57PM 33.3419 -113.4789 103° East 373 429 21,000 -1,860 Descending Albuquerque Center
09:59PM 33.3178 -113.3625 104° East 364 419 19,400 -1,620 Descending Albuquerque Center
10:00PM 33.2939 -113.2494 104° East 355 409 17,800 -1,680 Descending Albuquerque Center
10:01PM 33.2731 -113.1369 102° East 348 400 16,100 -1,680 Descending Albuquerque Center
10:02PM 33.2753 -113.0247 89° East 336 387 14,500 -1,620 Descending Albuquerque Center
10:03PM 33.2778 -112.9172 88° East 331 381 12,900 -1,620 Descending Albuquerque Center
10:04PM 33.2831 -112.8086 87° East 327 376 11,300 -1,440 Descending Albuquerque Center
10:05PM 33.3203 -112.7156 64° Northeast 322 371 10,000 -960 Descending Albuquerque Center
10:06PM 33.3531 -112.6289 66° East 303 349 9,400 -840 Descending Albuquerque Center
10:07PM 33.3836 -112.5489 65° Northeast 273 314 8,300 -840 Descending Albuquerque Center
10:08PM 33.4114 -112.4742 66° East 249 287 7,700 -840 Descending Albuquerque Center
10:09PM 33.4300 -112.3939 74° East 252 290 6,700 -1,200 Descending Albuquerque Center
10:10PM 33.4286 -112.2953 91° East 248 285 5,300 -1,260 Descending Albuquerque Center
10:11PM 33.4286 -112.2172 90° East 238 274 4,200 -1,140 Descending Albuquerque Center
10:12PM 33.4283 -112.1492 90° East 212 244 3,100 -1,080 Descending Albuquerque Center
10:13PM 33.4333 -112.1000 83° East 158 182 2,100 -900 Descending Phoenix TRACON
10:14PM 33.4333 -112.0500 90° East 145 167 1,500 -720 Descending Phoenix TRACON
10:16PM 33.4343 -112.0116 79° East  Level Estimated